Midleton, Ireland
Current Conditions -  °F | °C
As of 10:00 PM on Monday 26 Jan 2015 (Local Time) from EICK Reporting Station
Broken Clouds Broken Clouds  
Wind Chill: 36°   Ceiling: 2100
Heat Index: 41°   Visibility: 6mi
Dew Point: 39°   Wind: 8mph
Humidity: 93%   Direction: 270°W
Pressure: 30.48"   Gusts: NA
Location:  51.92°N, 8.17°W
Report Text: EICK 262200Z 27007KT 9999 FEW015 BKN021 05/04 Q1032 NOSIG
Loading
Personal Weather Stations






























Interactive Weather Map New forecast layout! Learn more

10-Day Weather Forecast

Advertisements
Track Severe Weather on mobile